sensor_id;sensor_type;location;lat;lon;timestamp;P1;durP1;ratioP1;P2;durP2;ratioP2
357;SDS011;167;47.558;7.602;2022-09-01T00:00:26;4.00;;;3.80;;
357;SDS011;167;47.558;7.602;2022-09-01T00:02:54;6.50;;;4.53;;
357;SDS011;167;47.558;7.602;2022-09-01T00:05:20;4.97;;;4.57;;
357;SDS011;167;47.558;7.602;2022-09-01T00:07:46;4.97;;;4.67;;
357;SDS011;167;47.558;7.602;2022-09-01T00:10:13;5.03;;;4.53;;
357;SDS011;167;47.558;7.602;2022-09-01T00:12:39;5.10;;;4.80;;
357;SDS011;167;47.558;7.602;2022-09-01T00:15:06;4.00;;;3.70;;
357;SDS011;167;47.558;7.602;2022-09-01T00:17:33;4.27;;;4.00;;
357;SDS011;167;47.558;7.602;2022-09-01T00:20:00;3.70;;;3.50;;
357;SDS011;167;47.558;7.602;2022-09-01T00:22:26;4.53;;;4.23;;
357;SDS011;167;47.558;7.602;2022-09-01T00:24:53;4.90;;;4.60;;
357;SDS011;167;47.558;7.602;2022-09-01T00:27:20;5.70;;;5.30;;
357;SDS011;167;47.558;7.602;2022-09-01T00:29:46;5.10;;;4.60;;
357;SDS011;167;47.558;7.602;2022-09-01T00:32:12;4.43;;;4.23;;
357;SDS011;167;47.558;7.602;2022-09-01T00:34:39;4.00;;;3.80;;
357;SDS011;167;47.558;7.602;2022-09-01T00:37:05;4.20;;;3.90;;
357;SDS011;167;47.558;7.602;2022-09-01T00:39:31;4.40;;;4.10;;
357;SDS011;167;47.558;7.602;2022-09-01T00:41:57;5.17;;;4.77;;
357;SDS011;167;47.558;7.602;2022-09-01T00:44:23;5.07;;;4.67;;
357;SDS011;167;47.558;7.602;2022-09-01T00:46:52;4.17;;;3.90;;
357;SDS011;167;47.558;7.602;2022-09-01T00:49:21;4.27;;;3.97;;
357;SDS011;167;47.558;7.602;2022-09-01T00:51:53;3.63;;;3.33;;
357;SDS011;167;47.558;7.602;2022-09-01T00:54:35;5.07;;;4.70;;
357;SDS011;167;47.558;7.602;2022-09-01T00:57:03;3.87;;;3.67;;
357;SDS011;167;47.558;7.602;2022-09-01T00:59:30;4.50;;;4.10;;
357;SDS011;167;47.558;7.602;2022-09-01T01:01:57;4.93;;;4.63;;
357;SDS011;167;47.558;7.602;2022-09-01T01:04:23;5.23;;;4.83;;
357;SDS011;167;47.558;7.602;2022-09-01T01:06:50;5.70;;;5.40;;
357;SDS011;167;47.558;7.602;2022-09-01T01:09:23;4.67;;;4.43;;
357;SDS011;167;47.558;7.602;2022-09-01T01:11:49;4.07;;;3.87;;
357;SDS011;167;47.558;7.602;2022-09-01T01:14:16;4.33;;;3.97;;
357;SDS011;167;47.558;7.602;2022-09-01T01:16:44;5.07;;;4.67;;
357;SDS011;167;47.558;7.602;2022-09-01T01:22:03;3.83;;;3.63;;
357;SDS011;167;47.558;7.602;2022-09-01T01:24:48;4.30;;;3.97;;
357;SDS011;167;47.558;7.602;2022-09-01T01:27:16;4.37;;;4.07;;
357;SDS011;167;47.558;7.602;2022-09-01T01:29:45;4.30;;;4.00;;
357;SDS011;167;47.558;7.602;2022-09-01T01:32:12;4.40;;;4.10;;
357;SDS011;167;47.558;7.602;2022-09-01T01:34:39;4.93;;;4.60;;
357;SDS011;167;47.558;7.602;2022-09-01T01:37:06;4.57;;;4.27;;
357;SDS011;167;47.558;7.602;2022-09-01T01:39:35;7.30;;;6.07;;
357;SDS011;167;47.558;7.602;2022-09-01T01:42:05;10.03;;;9.00;;
357;SDS011;167;47.558;7.602;2022-09-01T01:44:33;8.83;;;8.20;;
357;SDS011;167;47.558;7.602;2022-09-01T01:47:00;10.60;;;9.70;;
357;SDS011;167;47.558;7.602;2022-09-01T01:49:29;9.60;;;8.80;;
357;SDS011;167;47.558;7.602;2022-09-01T01:51:56;12.67;;;11.77;;
357;SDS011;167;47.558;7.602;2022-09-01T01:54:23;11.17;;;10.30;;
357;SDS011;167;47.558;7.602;2022-09-01T01:56:50;12.37;;;11.27;;
357;SDS011;167;47.558;7.602;2022-09-01T01:59:16;6.97;;;6.37;;
357;SDS011;167;47.558;7.602;2022-09-01T02:01:43;7.20;;;6.70;;
357;SDS011;167;47.558;7.602;2022-09-01T02:04:15;6.80;;;6.40;;
357;SDS011;167;47.558;7.602;2022-09-01T02:06:42;12.60;;;11.50;;
357;SDS011;167;47.558;7.602;2022-09-01T02:09:12;13.30;;;12.20;;
357;SDS011;167;47.558;7.602;2022-09-01T02:11:38;13.57;;;12.50;;
357;SDS011;167;47.558;7.602;2022-09-01T02:14:06;10.20;;;9.20;;
357;SDS011;167;47.558;7.602;2022-09-01T02:16:32;10.87;;;10.07;;
357;SDS011;167;47.558;7.602;2022-09-01T02:18:59;9.90;;;9.20;;
357;SDS011;167;47.558;7.602;2022-09-01T02:21:26;9.97;;;9.23;;
357;SDS011;167;47.558;7.602;2022-09-01T02:23:54;7.53;;;6.93;;
357;SDS011;167;47.558;7.602;2022-09-01T02:26:31;6.83;;;6.23;;
357;SDS011;167;47.558;7.602;2022-09-01T02:28:59;7.23;;;6.53;;
357;SDS011;167;47.558;7.602;2022-09-01T02:31:28;6.23;;;5.83;;
357;SDS011;167;47.558;7.602;2022-09-01T02:33:56;6.40;;;6.00;;
357;SDS011;167;47.558;7.602;2022-09-01T02:36:22;6.90;;;6.40;;
357;SDS011;167;47.558;7.602;2022-09-01T02:38:49;7.50;;;6.80;;
357;SDS011;167;47.558;7.602;2022-09-01T02:41:16;6.40;;;6.00;;
357;SDS011;167;47.558;7.602;2022-09-01T02:43:43;9.10;;;8.30;;
357;SDS011;167;47.558;7.602;2022-09-01T02:46:10;6.70;;;6.23;;
357;SDS011;167;47.558;7.602;2022-09-01T02:48:37;6.67;;;6.13;;
357;SDS011;167;47.558;7.602;2022-09-01T02:51:06;6.43;;;5.93;;
357;SDS011;167;47.558;7.602;2022-09-01T02:53:32;5.57;;;5.17;;
357;SDS011;167;47.558;7.602;2022-09-01T02:55:59;6.50;;;6.00;;
357;SDS011;167;47.558;7.602;2022-09-01T02:58:26;5.70;;;5.20;;
357;SDS011;167;47.558;7.602;2022-09-01T03:00:53;6.30;;;5.77;;
357;SDS011;167;47.558;7.602;2022-09-01T03:03:19;5.30;;;4.90;;
357;SDS011;167;47.558;7.602;2022-09-01T03:05:46;6.37;;;5.37;;
357;SDS011;167;47.558;7.602;2022-09-01T03:08:13;5.90;;;5.50;;
357;SDS011;167;47.558;7.602;2022-09-01T03:10:40;6.30;;;5.80;;
357;SDS011;167;47.558;7.602;2022-09-01T03:13:12;6.30;;;5.70;;
357;SDS011;167;47.558;7.602;2022-09-01T03:15:38;9.90;;;9.07;;
357;SDS011;167;47.558;7.602;2022-09-01T03:18:05;11.60;;;10.67;;
357;SDS011;167;47.558;7.602;2022-09-01T03:20:32;11.17;;;10.33;;
357;SDS011;167;47.558;7.602;2022-09-01T03:22:59;11.97;;;11.07;;
357;SDS011;167;47.558;7.602;2022-09-01T03:25:25;12.17;;;11.27;;
357;SDS011;167;47.558;7.602;2022-09-01T03:27:53;10.50;;;9.60;;
357;SDS011;167;47.558;7.602;2022-09-01T03:30:19;10.23;;;9.40;;
357;SDS011;167;47.558;7.602;2022-09-01T03:32:45;10.77;;;9.80;;
357;SDS011;167;47.558;7.602;2022-09-01T03:35:12;9.60;;;8.80;;
357;SDS011;167;47.558;7.602;2022-09-01T03:37:38;9.87;;;9.07;;
357;SDS011;167;47.558;7.602;2022-09-01T03:40:08;9.17;;;8.30;;
357;SDS011;167;47.558;7.602;2022-09-01T03:42:35;8.80;;;8.20;;
357;SDS011;167;47.558;7.602;2022-09-01T03:45:02;8.00;;;7.50;;
357;SDS011;167;47.558;7.602;2022-09-01T03:47:36;9.00;;;8.30;;
357;SDS011;167;47.558;7.602;2022-09-01T03:50:04;8.03;;;7.50;;
357;SDS011;167;47.558;7.602;2022-09-01T03:52:31;8.37;;;7.77;;
357;SDS011;167;47.558;7.602;2022-09-01T03:54:57;7.50;;;7.00;;
357;SDS011;167;47.558;7.602;2022-09-01T03:57:23;7.50;;;6.90;;
357;SDS011;167;47.558;7.602;2022-09-01T03:59:51;7.07;;;6.57;;
357;SDS011;167;47.558;7.602;2022-09-01T04:02:18;7.47;;;6.97;;
357;SDS011;167;47.558;7.602;2022-09-01T04:04:46;6.73;;;5.97;;
357;SDS011;167;47.558;7.602;2022-09-01T04:07:12;7.30;;;6.60;;
357;SDS011;167;47.558;7.602;2022-09-01T04:09:38;6.90;;;6.40;;
357;SDS011;167;47.558;7.602;2022-09-01T04:12:04;6.17;;;5.67;;
357;SDS011;167;47.558;7.602;2022-09-01T04:14:33;5.77;;;5.37;;
357;SDS011;167;47.558;7.602;2022-09-01T04:16:59;6.90;;;6.30;;
357;SDS011;167;47.558;7.602;2022-09-01T04:19:43;6.20;;;5.80;;
357;SDS011;167;47.558;7.602;2022-09-01T04:22:09;5.63;;;5.23;;
357;SDS011;167;47.558;7.602;2022-09-01T04:24:41;5.23;;;4.87;;
357;SDS011;167;47.558;7.602;2022-09-01T04:27:09;7.13;;;6.63;;
357;SDS011;167;47.558;7.602;2022-09-01T04:29:35;7.03;;;6.53;;
357;SDS011;167;47.558;7.602;2022-09-01T04:32:03;7.03;;;6.40;;
357;SDS011;167;47.558;7.602;2022-09-01T04:34:30;7.30;;;6.73;;
357;SDS011;167;47.558;7.602;2022-09-01T04:37:01;6.63;;;6.13;;
357;SDS011;167;47.558;7.602;2022-09-01T04:39:29;7.70;;;7.00;;
357;SDS011;167;47.558;7.602;2022-09-01T04:41:56;7.00;;;6.50;;
357;SDS011;167;47.558;7.602;2022-09-01T04:44:23;6.60;;;6.10;;
357;SDS011;167;47.558;7.602;2022-09-01T04:46:49;6.93;;;6.43;;
357;SDS011;167;47.558;7.602;2022-09-01T04:49:16;7.40;;;6.90;;
357;SDS011;167;47.558;7.602;2022-09-01T04:51:45;6.90;;;6.37;;
357;SDS011;167;47.558;7.602;2022-09-01T04:54:12;7.13;;;6.20;;
357;SDS011;167;47.558;7.602;2022-09-01T04:56:38;5.50;;;5.10;;
357;SDS011;167;47.558;7.602;2022-09-01T04:59:04;5.73;;;5.33;;
357;SDS011;167;47.558;7.602;2022-09-01T05:01:32;6.60;;;6.10;;
357;SDS011;167;47.558;7.602;2022-09-01T05:04:07;5.67;;;5.20;;
357;SDS011;167;47.558;7.602;2022-09-01T05:06:33;5.40;;;5.00;;
357;SDS011;167;47.558;7.602;2022-09-01T05:09:03;6.07;;;5.43;;
357;SDS011;167;47.558;7.602;2022-09-01T05:11:29;6.20;;;5.60;;
357;SDS011;167;47.558;7.602;2022-09-01T05:13:55;6.17;;;5.77;;
357;SDS011;167;47.558;7.602;2022-09-01T05:16:22;7.03;;;6.43;;
357;SDS011;167;47.558;7.602;2022-09-01T05:18:49;7.00;;;6.50;;
357;SDS011;167;47.558;7.602;2022-09-01T05:21:19;6.73;;;6.27;;
357;SDS011;167;47.558;7.602;2022-09-01T05:23:48;8.00;;;7.50;;
357;SDS011;167;47.558;7.602;2022-09-01T05:26:20;8.20;;;7.40;;
357;SDS011;167;47.558;7.602;2022-09-01T05:28:48;8.43;;;7.73;;
357;SDS011;167;47.558;7.602;2022-09-01T05:31:15;8.03;;;7.33;;
357;SDS011;167;47.558;7.602;2022-09-01T05:33:44;8.63;;;7.70;;
357;SDS011;167;47.558;7.602;2022-09-01T05:36:12;8.47;;;7.97;;
357;SDS011;167;47.558;7.602;2022-09-01T05:38:39;8.23;;;7.63;;
357;SDS011;167;47.558;7.602;2022-09-01T05:41:06;9.10;;;8.40;;
357;SDS011;167;47.558;7.602;2022-09-01T05:43:33;8.57;;;7.87;;
357;SDS011;167;47.558;7.602;2022-09-01T05:46:01;8.97;;;8.20;;
357;SDS011;167;47.558;7.602;2022-09-01T05:48:30;10.30;;;9.50;;
357;SDS011;167;47.558;7.602;2022-09-01T05:51:08;11.20;;;10.20;;
357;SDS011;167;47.558;7.602;2022-09-01T05:53:34;9.70;;;8.90;;
357;SDS011;167;47.558;7.602;2022-09-01T05:56:04;9.47;;;8.60;;
357;SDS011;167;47.558;7.602;2022-09-01T05:58:32;8.60;;;7.90;;
357;SDS011;167;47.558;7.602;2022-09-01T06:00:59;8.93;;;8.10;;
357;SDS011;167;47.558;7.602;2022-09-01T06:03:25;9.70;;;8.90;;
357;SDS011;167;47.558;7.602;2022-09-01T06:05:52;8.87;;;8.17;;
357;SDS011;167;47.558;7.602;2022-09-01T06:08:20;9.37;;;8.57;;
357;SDS011;167;47.558;7.602;2022-09-01T06:10:46;10.03;;;7.70;;
357;SDS011;167;47.558;7.602;2022-09-01T06:13:14;7.63;;;7.13;;
357;SDS011;167;47.558;7.602;2022-09-01T06:15:41;9.00;;;8.30;;
357;SDS011;167;47.558;7.602;2022-09-01T06:18:09;8.13;;;7.33;;
357;SDS011;167;47.558;7.602;2022-09-01T06:20:39;7.83;;;7.00;;
357;SDS011;167;47.558;7.602;2022-09-01T06:23:07;7.30;;;6.80;;
357;SDS011;167;47.558;7.602;2022-09-01T06:25:35;8.30;;;7.63;;
357;SDS011;167;47.558;7.602;2022-09-01T06:28:03;7.70;;;7.00;;
357;SDS011;167;47.558;7.602;2022-09-01T06:30:29;8.20;;;7.70;;
357;SDS011;167;47.558;7.602;2022-09-01T06:32:56;9.37;;;8.00;;
357;SDS011;167;47.558;7.602;2022-09-01T06:35:25;6.57;;;6.17;;
357;SDS011;167;47.558;7.602;2022-09-01T06:37:54;6.63;;;6.10;;
357;SDS011;167;47.558;7.602;2022-09-01T06:40:20;6.33;;;5.93;;
357;SDS011;167;47.558;7.602;2022-09-01T06:42:49;6.70;;;5.07;;
357;SDS011;167;47.558;7.602;2022-09-01T06:45:17;5.20;;;4.90;;
357;SDS011;167;47.558;7.602;2022-09-01T06:47:44;5.30;;;4.90;;
357;SDS011;167;47.558;7.602;2022-09-01T06:50:12;5.23;;;4.83;;
357;SDS011;167;47.558;7.602;2022-09-01T06:52:42;4.67;;;4.37;;
357;SDS011;167;47.558;7.602;2022-09-01T06:55:12;4.40;;;4.10;;
357;SDS011;167;47.558;7.602;2022-09-01T06:57:39;4.67;;;4.37;;
357;SDS011;167;47.558;7.602;2022-09-01T07:00:06;4.60;;;4.40;;
357;SDS011;167;47.558;7.602;2022-09-01T07:02:42;4.70;;;4.40;;
357;SDS011;167;47.558;7.602;2022-09-01T07:05:08;4.13;;;3.83;;
357;SDS011;167;47.558;7.602;2022-09-01T07:07:34;4.43;;;4.20;;
357;SDS011;167;47.558;7.602;2022-09-01T07:10:02;4.43;;;4.23;;
357;SDS011;167;47.558;7.602;2022-09-01T07:12:28;4.40;;;4.20;;
357;SDS011;167;47.558;7.602;2022-09-01T07:14:56;4.00;;;3.80;;
357;SDS011;167;47.558;7.602;2022-09-01T07:17:25;3.53;;;3.33;;
357;SDS011;167;47.558;7.602;2022-09-01T07:19:52;4.50;;;4.07;;
357;SDS011;167;47.558;7.602;2022-09-01T07:22:20;4.20;;;3.90;;
357;SDS011;167;47.558;7.602;2022-09-01T07:24:46;3.90;;;3.70;;
357;SDS011;167;47.558;7.602;2022-09-01T07:27:12;4.00;;;3.80;;
357;SDS011;167;47.558;7.602;2022-09-01T07:29:38;3.60;;;3.30;;
357;SDS011;167;47.558;7.602;2022-09-01T07:32:04;3.93;;;3.80;;
357;SDS011;167;47.558;7.602;2022-09-01T07:34:30;4.37;;;4.17;;
357;SDS011;167;47.558;7.602;2022-09-01T07:36:57;4.23;;;3.93;;
357;SDS011;167;47.558;7.602;2022-09-01T07:39:24;3.30;;;3.20;;
357;SDS011;167;47.558;7.602;2022-09-01T07:41:50;3.90;;;3.70;;
357;SDS011;167;47.558;7.602;2022-09-01T07:44:17;4.63;;;4.43;;
357;SDS011;167;47.558;7.602;2022-09-01T07:46:43;3.53;;;3.40;;
357;SDS011;167;47.558;7.602;2022-09-01T07:49:10;4.07;;;3.87;;
357;SDS011;167;47.558;7.602;2022-09-01T07:51:36;3.57;;;3.37;;
357;SDS011;167;47.558;7.602;2022-09-01T07:54:02;3.87;;;3.67;;
357;SDS011;167;47.558;7.602;2022-09-01T07:56:28;4.90;;;4.70;;
357;SDS011;167;47.558;7.602;2022-09-01T07:58:54;4.60;;;4.40;;
357;SDS011;167;47.558;7.602;2022-09-01T08:01:23;4.60;;;4.40;;
357;SDS011;167;47.558;7.602;2022-09-01T08:03:51;4.20;;;4.00;;
357;SDS011;167;47.558;7.602;2022-09-01T08:06:19;5.10;;;4.80;;
357;SDS011;167;47.558;7.602;2022-09-01T08:08:48;4.53;;;4.33;;
357;SDS011;167;47.558;7.602;2022-09-01T08:11:23;6.30;;;5.90;;
357;SDS011;167;47.558;7.602;2022-09-01T08:13:49;7.10;;;6.80;;
357;SDS011;167;47.558;7.602;2022-09-01T08:16:16;5.50;;;5.30;;
357;SDS011;167;47.558;7.602;2022-09-01T08:18:42;5.50;;;5.20;;
357;SDS011;167;47.558;7.602;2022-09-01T08:21:10;4.47;;;4.33;;
357;SDS011;167;47.558;7.602;2022-09-01T08:23:36;6.57;;;6.30;;
357;SDS011;167;47.558;7.602;2022-09-01T08:26:04;4.77;;;4.57;;
357;SDS011;167;47.558;7.602;2022-09-01T08:28:30;8.03;;;7.63;;
357;SDS011;167;47.558;7.602;2022-09-01T08:30:57;9.00;;;8.70;;
357;SDS011;167;47.558;7.602;2022-09-01T08:33:24;11.80;;;11.50;;
357;SDS011;167;47.558;7.602;2022-09-01T08:35:50;6.67;;;6.37;;
357;SDS011;167;47.558;7.602;2022-09-01T08:38:16;5.00;;;4.80;;
357;SDS011;167;47.558;7.602;2022-09-01T08:40:48;6.43;;;6.23;;
357;SDS011;167;47.558;7.602;2022-09-01T08:43:17;4.90;;;4.70;;
357;SDS011;167;47.558;7.602;2022-09-01T08:48:15;5.20;;;5.00;;
357;SDS011;167;47.558;7.602;2022-09-01T08:50:42;4.00;;;3.90;;
357;SDS011;167;47.558;7.602;2022-09-01T08:53:33;6.97;;;6.67;;
357;SDS011;167;47.558;7.602;2022-09-01T08:56:00;3.53;;;3.43;;
357;SDS011;167;47.558;7.602;2022-09-01T08:58:27;4.20;;;4.00;;
357;SDS011;167;47.558;7.602;2022-09-01T09:00:59;3.20;;;3.10;;
357;SDS011;167;47.558;7.602;2022-09-01T09:03:31;2.80;;;2.70;;
357;SDS011;167;47.558;7.602;2022-09-01T09:08:29;2.30;;;2.20;;
357;SDS011;167;47.558;7.602;2022-09-01T09:16:14;2.77;;;2.67;;
357;SDS011;167;47.558;7.602;2022-09-01T09:18:43;2.47;;;2.37;;
357;SDS011;167;47.558;7.602;2022-09-01T09:21:21;2.93;;;2.83;;
357;SDS011;167;47.558;7.602;2022-09-01T09:23:49;2.60;;;2.50;;
357;SDS011;167;47.558;7.602;2022-09-01T09:26:18;2.43;;;2.33;;
357;SDS011;167;47.558;7.602;2022-09-01T09:28:44;2.33;;;2.23;;
357;SDS011;167;47.558;7.602;2022-09-01T09:31:31;2.73;;;2.50;;
357;SDS011;167;47.558;7.602;2022-09-01T09:33:58;2.43;;;2.33;;
357;SDS011;167;47.558;7.602;2022-09-01T09:36:34;2.80;;;2.70;;
357;SDS011;167;47.558;7.602;2022-09-01T09:39:04;2.33;;;2.23;;
357;SDS011;167;47.558;7.602;2022-09-01T09:41:31;2.77;;;2.57;;
357;SDS011;167;47.558;7.602;2022-09-01T09:43:58;2.17;;;2.07;;
357;SDS011;167;47.558;7.602;2022-09-01T09:51:35;2.50;;;2.40;;
357;SDS011;167;47.558;7.602;2022-09-01T09:54:19;1.87;;;1.87;;
357;SDS011;167;47.558;7.602;2022-09-01T09:56:46;2.27;;;2.27;;
357;SDS011;167;47.558;7.602;2022-09-01T09:59:21;1.90;;;1.90;;
357;SDS011;167;47.558;7.602;2022-09-01T10:01:47;3.03;;;2.83;;
357;SDS011;167;47.558;7.602;2022-09-01T10:04:29;2.60;;;2.40;;
357;SDS011;167;47.558;7.602;2022-09-01T10:06:56;2.30;;;2.20;;
357;SDS011;167;47.558;7.602;2022-09-01T10:11:50;1.93;;;1.90;;
357;SDS011;167;47.558;7.602;2022-09-01T10:14:20;2.00;;;2.00;;
357;SDS011;167;47.558;7.602;2022-09-01T10:16:49;1.90;;;1.83;;
357;SDS011;167;47.558;7.602;2022-09-01T10:19:17;2.63;;;2.43;;
357;SDS011;167;47.558;7.602;2022-09-01T10:21:44;2.10;;;2.00;;
357;SDS011;167;47.558;7.602;2022-09-01T10:26:50;2.20;;;2.10;;
357;SDS011;167;47.558;7.602;2022-09-01T10:29:22;2.50;;;2.40;;
357;SDS011;167;47.558;7.602;2022-09-01T10:31:49;2.60;;;2.50;;
357;SDS011;167;47.558;7.602;2022-09-01T10:34:16;2.60;;;2.50;;
357;SDS011;167;47.558;7.602;2022-09-01T10:36:43;2.37;;;2.27;;
357;SDS011;167;47.558;7.602;2022-09-01T10:39:11;2.30;;;2.20;;
357;SDS011;167;47.558;7.602;2022-09-01T10:41:42;1.67;;;1.67;;
357;SDS011;167;47.558;7.602;2022-09-01T10:44:09;1.57;;;1.47;;
357;SDS011;167;47.558;7.602;2022-09-01T10:49:02;2.50;;;2.20;;
357;SDS011;167;47.558;7.602;2022-09-01T10:51:41;1.77;;;1.77;;
357;SDS011;167;47.558;7.602;2022-09-01T10:54:08;2.40;;;2.30;;
357;SDS011;167;47.558;7.602;2022-09-01T11:04:05;1.93;;;1.90;;
357;SDS011;167;47.558;7.602;2022-09-01T11:06:42;1.60;;;1.50;;
357;SDS011;167;47.558;7.602;2022-09-01T11:14:23;1.83;;;1.83;;
357;SDS011;167;47.558;7.602;2022-09-01T11:19:38;1.77;;;1.77;;
357;SDS011;167;47.558;7.602;2022-09-01T11:22:08;1.53;;;1.53;;
357;SDS011;167;47.558;7.602;2022-09-01T11:27:09;1.70;;;1.60;;
357;SDS011;167;47.558;7.602;2022-09-01T11:29:55;2.10;;;2.00;;
357;SDS011;167;47.558;7.602;2022-09-01T11:32:23;1.90;;;1.77;;
357;SDS011;167;47.558;7.602;2022-09-01T11:34:50;1.83;;;1.47;;
357;SDS011;167;47.558;7.602;2022-09-01T11:37:19;1.40;;;1.40;;
357;SDS011;167;47.558;7.602;2022-09-01T11:39:57;4.13;;;3.93;;
357;SDS011;167;47.558;7.602;2022-09-01T11:42:28;1.63;;;1.63;;
357;SDS011;167;47.558;7.602;2022-09-01T11:47:34;1.83;;;1.80;;
357;SDS011;167;47.558;7.602;2022-09-01T11:50:03;1.83;;;1.83;;
357;SDS011;167;47.558;7.602;2022-09-01T11:52:30;2.10;;;2.00;;
357;SDS011;167;47.558;7.602;2022-09-01T11:54:57;2.27;;;2.17;;
357;SDS011;167;47.558;7.602;2022-09-01T11:57:24;1.57;;;1.57;;
357;SDS011;167;47.558;7.602;2022-09-01T11:59:52;2.40;;;2.30;;
357;SDS011;167;47.558;7.602;2022-09-01T12:02:22;2.30;;;2.20;;
357;SDS011;167;47.558;7.602;2022-09-01T12:04:49;1.93;;;1.83;;
357;SDS011;167;47.558;7.602;2022-09-01T12:09:50;2.07;;;1.97;;
357;SDS011;167;47.558;7.602;2022-09-01T12:14:56;2.27;;;2.17;;
357;SDS011;167;47.558;7.602;2022-09-01T12:17:22;2.17;;;2.07;;
357;SDS011;167;47.558;7.602;2022-09-01T12:19:48;2.00;;;1.90;;
357;SDS011;167;47.558;7.602;2022-09-01T12:22:16;2.20;;;2.10;;
357;SDS011;167;47.558;7.602;2022-09-01T12:24:43;2.10;;;2.00;;
357;SDS011;167;47.558;7.602;2022-09-01T12:27:10;2.20;;;2.10;;
357;SDS011;167;47.558;7.602;2022-09-01T12:29:36;2.20;;;2.10;;
357;SDS011;167;47.558;7.602;2022-09-01T12:32:02;1.50;;;1.50;;
357;SDS011;167;47.558;7.602;2022-09-01T12:37:28;2.70;;;2.50;;
357;SDS011;167;47.558;7.602;2022-09-01T12:39:48;2.00;;;1.80;;
357;SDS011;167;47.558;7.602;2022-09-01T12:44:50;2.17;;;2.07;;
357;SDS011;167;47.558;7.602;2022-09-01T12:50:07;2.50;;;2.40;;
357;SDS011;167;47.558;7.602;2022-09-01T12:52:34;2.37;;;2.27;;
357;SDS011;167;47.558;7.602;2022-09-01T12:57:29;2.10;;;2.00;;
357;SDS011;167;47.558;7.602;2022-09-01T13:02:42;2.00;;;1.90;;
357;SDS011;167;47.558;7.602;2022-09-01T13:07:46;2.07;;;1.97;;
357;SDS011;167;47.558;7.602;2022-09-01T13:10:12;2.10;;;2.00;;
357;SDS011;167;47.558;7.602;2022-09-01T13:12:41;1.77;;;1.63;;
357;SDS011;167;47.558;7.602;2022-09-01T13:15:08;2.47;;;2.40;;
357;SDS011;167;47.558;7.602;2022-09-01T13:17:34;1.80;;;1.70;;
357;SDS011;167;47.558;7.602;2022-09-01T13:20:02;1.53;;;1.53;;
357;SDS011;167;47.558;7.602;2022-09-01T13:22:28;1.90;;;1.90;;
357;SDS011;167;47.558;7.602;2022-09-01T13:24:54;1.97;;;1.63;;
357;SDS011;167;47.558;7.602;2022-09-01T13:27:20;2.20;;;2.10;;
357;SDS011;167;47.558;7.602;2022-09-01T13:29:47;2.10;;;2.00;;
357;SDS011;167;47.558;7.602;2022-09-01T13:32:13;1.77;;;1.70;;
357;SDS011;167;47.558;7.602;2022-09-01T13:34:39;2.03;;;1.97;;
357;SDS011;167;47.558;7.602;2022-09-01T13:37:05;2.40;;;2.30;;
357;SDS011;167;47.558;7.602;2022-09-01T13:39:31;2.03;;;1.93;;
357;SDS011;167;47.558;7.602;2022-09-01T13:41:57;1.77;;;1.77;;
357;SDS011;167;47.558;7.602;2022-09-01T13:44:23;1.80;;;1.70;;
357;SDS011;167;47.558;7.602;2022-09-01T13:46:49;2.73;;;2.53;;
357;SDS011;167;47.558;7.602;2022-09-01T13:49:15;1.83;;;1.83;;
357;SDS011;167;47.558;7.602;2022-09-01T13:51:41;1.70;;;1.70;;
357;SDS011;167;47.558;7.602;2022-09-01T13:54:07;1.80;;;1.70;;
357;SDS011;167;47.558;7.602;2022-09-01T13:56:33;1.93;;;1.83;;
357;SDS011;167;47.558;7.602;2022-09-01T13:59:01;2.13;;;2.03;;
357;SDS011;167;47.558;7.602;2022-09-01T14:01:27;2.03;;;1.93;;
357;SDS011;167;47.558;7.602;2022-09-01T14:03:53;2.10;;;2.00;;
357;SDS011;167;47.558;7.602;2022-09-01T14:06:19;1.63;;;1.60;;
357;SDS011;167;47.558;7.602;2022-09-01T14:08:45;1.50;;;1.50;;
357;SDS011;167;47.558;7.602;2022-09-01T14:11:15;2.10;;;2.00;;
357;SDS011;167;47.558;7.602;2022-09-01T14:13:41;1.43;;;1.43;;
357;SDS011;167;47.558;7.602;2022-09-01T14:16:12;1.70;;;1.60;;
357;SDS011;167;47.558;7.602;2022-09-01T14:18:39;1.80;;;1.70;;
357;SDS011;167;47.558;7.602;2022-09-01T14:21:05;1.50;;;1.40;;
357;SDS011;167;47.558;7.602;2022-09-01T14:23:34;2.10;;;1.80;;
357;SDS011;167;47.558;7.602;2022-09-01T14:26:00;1.93;;;1.83;;
357;SDS011;167;47.558;7.602;2022-09-01T14:28:26;1.87;;;1.73;;
357;SDS011;167;47.558;7.602;2022-09-01T14:30:52;2.30;;;2.20;;
357;SDS011;167;47.558;7.602;2022-09-01T14:33:19;1.97;;;1.90;;
357;SDS011;167;47.558;7.602;2022-09-01T14:35:48;1.90;;;1.80;;
357;SDS011;167;47.558;7.602;2022-09-01T14:38:14;1.73;;;1.63;;
357;SDS011;167;47.558;7.602;2022-09-01T14:40:41;1.93;;;1.83;;
357;SDS011;167;47.558;7.602;2022-09-01T14:43:08;2.00;;;1.90;;
357;SDS011;167;47.558;7.602;2022-09-01T14:45:38;1.43;;;1.43;;
357;SDS011;167;47.558;7.602;2022-09-01T14:48:04;2.13;;;1.77;;
357;SDS011;167;47.558;7.602;2022-09-01T14:50:33;1.60;;;1.60;;
357;SDS011;167;47.558;7.602;2022-09-01T14:53:00;1.83;;;1.73;;
357;SDS011;167;47.558;7.602;2022-09-01T14:55:27;4.33;;;1.83;;
357;SDS011;167;47.558;7.602;2022-09-01T14:57:53;1.90;;;1.80;;
357;SDS011;167;47.558;7.602;2022-09-01T15:00:20;2.00;;;1.83;;
357;SDS011;167;47.558;7.602;2022-09-01T15:02:48;1.77;;;1.77;;
357;SDS011;167;47.558;7.602;2022-09-01T15:05:14;1.73;;;1.73;;
357;SDS011;167;47.558;7.602;2022-09-01T15:07:41;1.87;;;1.77;;
357;SDS011;167;47.558;7.602;2022-09-01T15:10:08;1.40;;;1.40;;
357;SDS011;167;47.558;7.602;2022-09-01T15:12:35;2.40;;;1.87;;
357;SDS011;167;47.558;7.602;2022-09-01T15:15:03;1.53;;;1.53;;
357;SDS011;167;47.558;7.602;2022-09-01T15:17:29;1.53;;;1.53;;
357;SDS011;167;47.558;7.602;2022-09-01T15:19:55;1.50;;;1.50;;
357;SDS011;167;47.558;7.602;2022-09-01T15:22:41;1.53;;;1.50;;
357;SDS011;167;47.558;7.602;2022-09-01T15:25:07;1.50;;;1.50;;
357;SDS011;167;47.558;7.602;2022-09-01T15:27:33;1.60;;;1.60;;
357;SDS011;167;47.558;7.602;2022-09-01T15:29:59;2.07;;;1.97;;
357;SDS011;167;47.558;7.602;2022-09-01T15:32:25;2.10;;;2.00;;
357;SDS011;167;47.558;7.602;2022-09-01T15:34:51;1.87;;;1.80;;
357;SDS011;167;47.558;7.602;2022-09-01T15:37:17;1.90;;;1.80;;
357;SDS011;167;47.558;7.602;2022-09-01T15:39:43;2.20;;;2.10;;
357;SDS011;167;47.558;7.602;2022-09-01T15:42:09;1.63;;;1.60;;
357;SDS011;167;47.558;7.602;2022-09-01T15:44:35;1.87;;;1.87;;
357;SDS011;167;47.558;7.602;2022-09-01T15:47:01;2.13;;;1.93;;
357;SDS011;167;47.558;7.602;2022-09-01T15:49:27;1.80;;;1.70;;
357;SDS011;167;47.558;7.602;2022-09-01T15:51:54;2.00;;;1.90;;
357;SDS011;167;47.558;7.602;2022-09-01T15:54:21;1.70;;;1.60;;
357;SDS011;167;47.558;7.602;2022-09-01T15:56:49;1.70;;;1.60;;
357;SDS011;167;47.558;7.602;2022-09-01T15:59:15;1.87;;;1.77;;
357;SDS011;167;47.558;7.602;2022-09-01T16:01:42;2.67;;;2.47;;
357;SDS011;167;47.558;7.602;2022-09-01T16:04:10;1.90;;;1.80;;
357;SDS011;167;47.558;7.602;2022-09-01T16:06:37;2.50;;;1.60;;
357;SDS011;167;47.558;7.602;2022-09-01T16:09:04;2.03;;;1.93;;
357;SDS011;167;47.558;7.602;2022-09-01T16:11:30;2.50;;;2.40;;
357;SDS011;167;47.558;7.602;2022-09-01T16:13:57;2.27;;;2.17;;
357;SDS011;167;47.558;7.602;2022-09-01T16:16:33;2.30;;;1.83;;
357;SDS011;167;47.558;7.602;2022-09-01T16:24:06;2.00;;;1.90;;
357;SDS011;167;47.558;7.602;2022-09-01T16:26:33;2.30;;;2.20;;
357;SDS011;167;47.558;7.602;2022-09-01T16:29:00;2.33;;;1.70;;
357;SDS011;167;47.558;7.602;2022-09-01T16:31:29;2.30;;;2.10;;
357;SDS011;167;47.558;7.602;2022-09-01T16:33:56;2.17;;;2.07;;
357;SDS011;167;47.558;7.602;2022-09-01T16:36:40;2.43;;;2.23;;
357;SDS011;167;47.558;7.602;2022-09-01T16:52:39;2.00;;;1.90;;
357;SDS011;167;47.558;7.602;2022-09-01T16:55:19;1.90;;;1.90;;
357;SDS011;167;47.558;7.602;2022-09-01T17:00:17;2.20;;;2.10;;
357;SDS011;167;47.558;7.602;2022-09-01T17:08:31;1.80;;;1.80;;
357;SDS011;167;47.558;7.602;2022-09-01T17:10:41;1.70;;;1.60;;
357;SDS011;167;47.558;7.602;2022-09-01T17:15:56;1.87;;;1.77;;
357;SDS011;167;47.558;7.602;2022-09-01T17:18:38;2.03;;;1.70;;
357;SDS011;167;47.558;7.602;2022-09-01T17:21:07;2.00;;;2.00;;
357;SDS011;167;47.558;7.602;2022-09-01T17:23:36;2.50;;;2.40;;
357;SDS011;167;47.558;7.602;2022-09-01T17:26:04;2.30;;;2.20;;